Terminal Aerodrome Forecast
Issued by NWS

Home | Current Version | Previous Version | Text Only | Print | Product List | Glossary Off
Versions: 1 2 3 4 5 6 7 8 9 10 11 12 13 14 15 16

000
FTUS41 KCLE 120802 AAA
TAFFDY
TAF AMD
KFDY 120802Z 1208/1306 29012G18KT 3SM -SN BR OVC006
      TEMPO 1208/1212 2SM -SN SCT006 OVC012
     FM121200 31015G25KT P6SM OVC015
     FM121800 31018G28KT P6SM OVC035=

USA.gov is the U.S. government's official web portal to all federal, state and local government web resources and services.